sensor_id;sensor_type;location;lat;lon;timestamp;P1;durP1;ratioP1;P2;durP2;ratioP2
52025;SDS011;38041;40.058;18.328;2023-01-30T00:01:38;8.33;;;3.13;;
52025;SDS011;38041;40.058;18.328;2023-01-30T00:04:06;7.73;;;3.70;;
52025;SDS011;38041;40.058;18.328;2023-01-30T00:06:35;8.00;;;4.17;;
52025;SDS011;38041;40.058;18.328;2023-01-30T00:09:22;7.37;;;3.20;;
52025;SDS011;38041;40.058;18.328;2023-01-30T00:11:49;6.00;;;3.80;;
52025;SDS011;38041;40.058;18.328;2023-01-30T00:14:17;5.73;;;3.33;;
52025;SDS011;38041;40.058;18.328;2023-01-30T00:16:45;4.73;;;2.83;;
52025;SDS011;38041;40.058;18.328;2023-01-30T00:19:12;5.63;;;3.30;;
52025;SDS011;38041;40.058;18.328;2023-01-30T00:21:40;5.57;;;3.20;;
52025;SDS011;38041;40.058;18.328;2023-01-30T00:24:08;9.83;;;3.53;;
52025;SDS011;38041;40.058;18.328;2023-01-30T00:26:35;5.97;;;2.80;;
52025;SDS011;38041;40.058;18.328;2023-01-30T00:29:03;8.07;;;3.60;;
52025;SDS011;38041;40.058;18.328;2023-01-30T00:31:31;8.40;;;3.93;;
52025;SDS011;38041;40.058;18.328;2023-01-30T00:33:59;8.43;;;3.40;;
52025;SDS011;38041;40.058;18.328;2023-01-30T00:36:26;8.80;;;3.73;;
52025;SDS011;38041;40.058;18.328;2023-01-30T00:38:55;6.07;;;3.43;;
52025;SDS011;38041;40.058;18.328;2023-01-30T00:41:24;8.07;;;4.07;;
52025;SDS011;38041;40.058;18.328;2023-01-30T00:44:11;8.20;;;4.53;;
52025;SDS011;38041;40.058;18.328;2023-01-30T00:46:58;8.37;;;3.37;;
52025;SDS011;38041;40.058;18.328;2023-01-30T00:49:31;7.73;;;3.90;;
52025;SDS011;38041;40.058;18.328;2023-01-30T00:51:59;10.50;;;3.60;;
52025;SDS011;38041;40.058;18.328;2023-01-30T00:54:27;4.53;;;3.00;;
52025;SDS011;38041;40.058;18.328;2023-01-30T00:56:57;9.67;;;3.83;;
52025;SDS011;38041;40.058;18.328;2023-01-30T00:59:25;10.30;;;4.00;;
52025;SDS011;38041;40.058;18.328;2023-01-30T01:01:53;6.07;;;3.27;;
52025;SDS011;38041;40.058;18.328;2023-01-30T01:04:21;10.63;;;3.53;;
52025;SDS011;38041;40.058;18.328;2023-01-30T01:06:48;6.07;;;3.27;;
52025;SDS011;38041;40.058;18.328;2023-01-30T01:09:16;8.70;;;3.23;;
52025;SDS011;38041;40.058;18.328;2023-01-30T01:11:44;8.53;;;2.60;;
52025;SDS011;38041;40.058;18.328;2023-01-30T01:14:12;6.40;;;3.67;;
52025;SDS011;38041;40.058;18.328;2023-01-30T01:16:40;6.33;;;2.30;;
52025;SDS011;38041;40.058;18.328;2023-01-30T01:19:08;4.87;;;2.70;;
52025;SDS011;38041;40.058;18.328;2023-01-30T01:21:35;8.70;;;2.47;;
52025;SDS011;38041;40.058;18.328;2023-01-30T01:24:03;5.60;;;2.97;;
52025;SDS011;38041;40.058;18.328;2023-01-30T01:26:32;4.33;;;2.70;;
52025;SDS011;38041;40.058;18.328;2023-01-30T01:29:01;7.60;;;2.70;;
52025;SDS011;38041;40.058;18.328;2023-01-30T01:31:28;7.17;;;2.63;;
52025;SDS011;38041;40.058;18.328;2023-01-30T01:33:56;4.33;;;2.40;;
52025;SDS011;38041;40.058;18.328;2023-01-30T01:36:24;6.17;;;2.53;;
52025;SDS011;38041;40.058;18.328;2023-01-30T01:39:12;4.63;;;2.47;;
52025;SDS011;38041;40.058;18.328;2023-01-30T01:41:40;4.47;;;2.40;;
52025;SDS011;38041;40.058;18.328;2023-01-30T01:44:09;5.67;;;2.37;;
52025;SDS011;38041;40.058;18.328;2023-01-30T01:49:27;3.80;;;2.10;;
52025;SDS011;38041;40.058;18.328;2023-01-30T01:52:00;4.97;;;2.20;;
52025;SDS011;38041;40.058;18.328;2023-01-30T01:57:07;3.17;;;1.83;;
52025;SDS011;38041;40.058;18.328;2023-01-30T01:59:39;5.60;;;1.83;;
52025;SDS011;38041;40.058;18.328;2023-01-30T02:02:09;5.90;;;2.27;;
52025;SDS011;38041;40.058;18.328;2023-01-30T02:04:39;8.83;;;2.73;;
52025;SDS011;38041;40.058;18.328;2023-01-30T02:07:49;4.27;;;2.50;;
52025;SDS011;38041;40.058;18.328;2023-01-30T02:10:21;3.87;;;2.00;;
52025;SDS011;38041;40.058;18.328;2023-01-30T02:12:50;5.37;;;2.30;;
52025;SDS011;38041;40.058;18.328;2023-01-30T02:15:20;4.30;;;2.23;;
52025;SDS011;38041;40.058;18.328;2023-01-30T02:17:47;5.20;;;2.20;;
52025;SDS011;38041;40.058;18.328;2023-01-30T02:20:20;5.77;;;2.33;;
52025;SDS011;38041;40.058;18.328;2023-01-30T02:25:23;4.27;;;1.57;;
52025;SDS011;38041;40.058;18.328;2023-01-30T02:33:36;7.33;;;1.93;;
52025;SDS011;38041;40.058;18.328;2023-01-30T02:38:53;4.63;;;1.70;;
52025;SDS011;38041;40.058;18.328;2023-01-30T02:41:25;4.03;;;1.80;;
52025;SDS011;38041;40.058;18.328;2023-01-30T02:47:14;3.33;;;1.43;;
52025;SDS011;38041;40.058;18.328;2023-01-30T02:49:54;4.57;;;2.30;;
52025;SDS011;38041;40.058;18.328;2023-01-30T02:52:26;3.70;;;1.70;;
52025;SDS011;38041;40.058;18.328;2023-01-30T02:54:55;6.03;;;2.17;;
52025;SDS011;38041;40.058;18.328;2023-01-30T02:57:23;4.67;;;1.33;;
52025;SDS011;38041;40.058;18.328;2023-01-30T02:59:58;2.55;;;1.88;;
52025;SDS011;38041;40.058;18.328;2023-01-30T03:02:52;3.73;;;2.00;;
52025;SDS011;38041;40.058;18.328;2023-01-30T03:11:25;4.65;;;2.30;;
52025;SDS011;38041;40.058;18.328;2023-01-30T03:13:55;5.37;;;1.90;;
52025;SDS011;38041;40.058;18.328;2023-01-30T03:16:38;6.10;;;2.23;;
52025;SDS011;38041;40.058;18.328;2023-01-30T03:19:08;5.90;;;2.07;;
52025;SDS011;38041;40.058;18.328;2023-01-30T03:21:40;5.57;;;1.87;;
52025;SDS011;38041;40.058;18.328;2023-01-30T03:24:08;3.53;;;1.33;;
52025;SDS011;38041;40.058;18.328;2023-01-30T03:26:41;4.27;;;2.20;;
52025;SDS011;38041;40.058;18.328;2023-01-30T03:29:10;3.67;;;1.60;;
52025;SDS011;38041;40.058;18.328;2023-01-30T03:31:38;7.40;;;2.90;;
52025;SDS011;38041;40.058;18.328;2023-01-30T03:34:05;2.77;;;1.70;;
52025;SDS011;38041;40.058;18.328;2023-01-30T03:36:33;4.50;;;2.23;;
52025;SDS011;38041;40.058;18.328;2023-01-30T03:39:01;3.27;;;1.67;;
52025;SDS011;38041;40.058;18.328;2023-01-30T03:41:29;3.60;;;1.53;;
52025;SDS011;38041;40.058;18.328;2023-01-30T03:43:59;4.77;;;1.63;;
52025;SDS011;38041;40.058;18.328;2023-01-30T03:46:28;5.73;;;2.47;;
52025;SDS011;38041;40.058;18.328;2023-01-30T03:48:56;7.80;;;2.33;;
52025;SDS011;38041;40.058;18.328;2023-01-30T03:51:25;4.97;;;2.30;;
52025;SDS011;38041;40.058;18.328;2023-01-30T03:53:53;6.33;;;2.60;;
52025;SDS011;38041;40.058;18.328;2023-01-30T03:56:21;7.53;;;2.00;;
52025;SDS011;38041;40.058;18.328;2023-01-30T03:58:48;4.40;;;2.07;;
52025;SDS011;38041;40.058;18.328;2023-01-30T04:01:20;4.10;;;1.53;;
52025;SDS011;38041;40.058;18.328;2023-01-30T04:03:48;4.17;;;1.87;;
52025;SDS011;38041;40.058;18.328;2023-01-30T04:06:16;4.20;;;1.87;;
52025;SDS011;38041;40.058;18.328;2023-01-30T04:08:44;5.63;;;1.97;;
52025;SDS011;38041;40.058;18.328;2023-01-30T04:11:23;4.57;;;2.13;;
52025;SDS011;38041;40.058;18.328;2023-01-30T04:13:51;5.27;;;2.73;;
52025;SDS011;38041;40.058;18.328;2023-01-30T04:16:23;4.60;;;1.97;;
52025;SDS011;38041;40.058;18.328;2023-01-30T04:19:10;5.43;;;1.67;;
52025;SDS011;38041;40.058;18.328;2023-01-30T04:21:39;4.47;;;1.67;;
52025;SDS011;38041;40.058;18.328;2023-01-30T04:24:07;4.40;;;2.60;;
52025;SDS011;38041;40.058;18.328;2023-01-30T04:26:35;8.70;;;4.03;;
52025;SDS011;38041;40.058;18.328;2023-01-30T04:29:03;6.90;;;2.60;;
52025;SDS011;38041;40.058;18.328;2023-01-30T04:31:32;4.10;;;1.90;;
52025;SDS011;38041;40.058;18.328;2023-01-30T04:34:20;4.33;;;1.67;;
52025;SDS011;38041;40.058;18.328;2023-01-30T04:36:48;3.57;;;1.97;;
52025;SDS011;38041;40.058;18.328;2023-01-30T04:39:16;4.70;;;2.10;;
52025;SDS011;38041;40.058;18.328;2023-01-30T04:41:46;6.73;;;2.97;;
52025;SDS011;38041;40.058;18.328;2023-01-30T04:44:13;7.87;;;2.53;;
52025;SDS011;38041;40.058;18.328;2023-01-30T04:46:47;4.77;;;1.70;;
52025;SDS011;38041;40.058;18.328;2023-01-30T04:49:15;4.30;;;2.00;;
52025;SDS011;38041;40.058;18.328;2023-01-30T04:51:43;8.20;;;2.73;;
52025;SDS011;38041;40.058;18.328;2023-01-30T04:54:11;3.67;;;1.87;;
52025;SDS011;38041;40.058;18.328;2023-01-30T04:56:40;7.70;;;2.53;;
52025;SDS011;38041;40.058;18.328;2023-01-30T04:59:08;4.57;;;1.93;;
52025;SDS011;38041;40.058;18.328;2023-01-30T05:01:41;7.03;;;3.43;;
52025;SDS011;38041;40.058;18.328;2023-01-30T05:04:08;6.27;;;2.07;;
52025;SDS011;38041;40.058;18.328;2023-01-30T05:06:36;4.67;;;2.60;;
52025;SDS011;38041;40.058;18.328;2023-01-30T05:09:04;7.77;;;2.90;;
52025;SDS011;38041;40.058;18.328;2023-01-30T05:11:32;6.23;;;2.83;;
52025;SDS011;38041;40.058;18.328;2023-01-30T05:14:00;4.50;;;2.20;;
52025;SDS011;38041;40.058;18.328;2023-01-30T05:16:28;5.30;;;2.43;;
52025;SDS011;38041;40.058;18.328;2023-01-30T05:18:56;4.60;;;1.87;;
52025;SDS011;38041;40.058;18.328;2023-01-30T05:21:24;6.30;;;2.30;;
52025;SDS011;38041;40.058;18.328;2023-01-30T05:23:54;5.03;;;2.77;;
52025;SDS011;38041;40.058;18.328;2023-01-30T05:26:21;7.10;;;2.73;;
52025;SDS011;38041;40.058;18.328;2023-01-30T05:28:58;7.23;;;3.57;;
52025;SDS011;38041;40.058;18.328;2023-01-30T05:31:26;5.23;;;3.20;;
52025;SDS011;38041;40.058;18.328;2023-01-30T05:33:53;5.87;;;2.60;;
52025;SDS011;38041;40.058;18.328;2023-01-30T05:36:21;4.47;;;2.50;;
52025;SDS011;38041;40.058;18.328;2023-01-30T05:38:49;8.77;;;2.33;;
52025;SDS011;38041;40.058;18.328;2023-01-30T05:41:17;7.73;;;3.53;;
52025;SDS011;38041;40.058;18.328;2023-01-30T05:43:47;8.20;;;3.13;;
52025;SDS011;38041;40.058;18.328;2023-01-30T05:46:16;7.17;;;2.57;;
52025;SDS011;38041;40.058;18.328;2023-01-30T05:48:44;7.30;;;3.40;;
52025;SDS011;38041;40.058;18.328;2023-01-30T05:51:18;4.77;;;1.83;;
52025;SDS011;38041;40.058;18.328;2023-01-30T05:53:46;3.97;;;2.53;;
52025;SDS011;38041;40.058;18.328;2023-01-30T05:56:14;9.13;;;3.00;;
52025;SDS011;38041;40.058;18.328;2023-01-30T05:58:42;6.17;;;2.73;;
52025;SDS011;38041;40.058;18.328;2023-01-30T06:01:10;6.47;;;3.43;;
52025;SDS011;38041;40.058;18.328;2023-01-30T06:03:38;5.17;;;2.93;;
52025;SDS011;38041;40.058;18.328;2023-01-30T06:06:06;4.83;;;3.00;;
52025;SDS011;38041;40.058;18.328;2023-01-30T06:08:34;5.83;;;2.90;;
52025;SDS011;38041;40.058;18.328;2023-01-30T06:11:03;9.50;;;3.40;;
52025;SDS011;38041;40.058;18.328;2023-01-30T06:13:31;6.00;;;3.27;;
52025;SDS011;38041;40.058;18.328;2023-01-30T06:15:59;6.20;;;2.83;;
52025;SDS011;38041;40.058;18.328;2023-01-30T06:18:26;5.03;;;1.80;;
52025;SDS011;38041;40.058;18.328;2023-01-30T06:20:54;6.47;;;2.33;;
52025;SDS011;38041;40.058;18.328;2023-01-30T06:23:22;6.03;;;2.00;;
52025;SDS011;38041;40.058;18.328;2023-01-30T06:25:50;5.23;;;2.20;;
52025;SDS011;38041;40.058;18.328;2023-01-30T06:28:18;3.87;;;2.63;;
52025;SDS011;38041;40.058;18.328;2023-01-30T06:30:46;34.03;;;6.27;;
52025;SDS011;38041;40.058;18.328;2023-01-30T06:33:14;6.60;;;2.70;;
52025;SDS011;38041;40.058;18.328;2023-01-30T06:35:42;4.67;;;3.33;;
52025;SDS011;38041;40.058;18.328;2023-01-30T06:38:10;10.97;;;2.77;;
52025;SDS011;38041;40.058;18.328;2023-01-30T06:40:40;8.83;;;2.87;;
52025;SDS011;38041;40.058;18.328;2023-01-30T06:43:08;3.97;;;2.20;;
52025;SDS011;38041;40.058;18.328;2023-01-30T06:45:35;6.23;;;3.83;;
52025;SDS011;38041;40.058;18.328;2023-01-30T06:48:03;3.93;;;2.50;;
52025;SDS011;38041;40.058;18.328;2023-01-30T06:50:31;7.87;;;3.73;;
52025;SDS011;38041;40.058;18.328;2023-01-30T06:53:03;8.70;;;3.10;;
52025;SDS011;38041;40.058;18.328;2023-01-30T06:55:32;8.23;;;2.63;;
52025;SDS011;38041;40.058;18.328;2023-01-30T06:58:05;6.03;;;3.50;;
52025;SDS011;38041;40.058;18.328;2023-01-30T07:00:33;6.07;;;3.50;;
52025;SDS011;38041;40.058;18.328;2023-01-30T07:03:01;5.83;;;2.37;;
52025;SDS011;38041;40.058;18.328;2023-01-30T07:05:29;5.93;;;2.07;;
52025;SDS011;38041;40.058;18.328;2023-01-30T07:07:57;5.57;;;2.50;;
52025;SDS011;38041;40.058;18.328;2023-01-30T07:10:25;6.03;;;3.07;;
52025;SDS011;38041;40.058;18.328;2023-01-30T07:12:54;5.23;;;2.57;;
52025;SDS011;38041;40.058;18.328;2023-01-30T07:15:22;9.70;;;3.33;;
52025;SDS011;38041;40.058;18.328;2023-01-30T07:17:50;7.33;;;3.83;;
52025;SDS011;38041;40.058;18.328;2023-01-30T07:20:18;6.57;;;3.30;;
52025;SDS011;38041;40.058;18.328;2023-01-30T07:22:49;10.10;;;4.23;;
52025;SDS011;38041;40.058;18.328;2023-01-30T07:25:17;5.10;;;2.37;;
52025;SDS011;38041;40.058;18.328;2023-01-30T07:27:52;5.03;;;2.50;;
52025;SDS011;38041;40.058;18.328;2023-01-30T07:30:20;4.57;;;2.30;;
52025;SDS011;38041;40.058;18.328;2023-01-30T07:32:48;7.83;;;3.37;;
52025;SDS011;38041;40.058;18.328;2023-01-30T07:35:17;10.37;;;2.77;;
52025;SDS011;38041;40.058;18.328;2023-01-30T07:37:46;7.13;;;3.87;;
52025;SDS011;38041;40.058;18.328;2023-01-30T07:40:14;32.57;;;5.17;;
52025;SDS011;38041;40.058;18.328;2023-01-30T07:42:42;7.97;;;2.33;;
52025;SDS011;38041;40.058;18.328;2023-01-30T07:45:09;6.33;;;3.17;;
52025;SDS011;38041;40.058;18.328;2023-01-30T07:47:37;7.43;;;3.67;;
52025;SDS011;38041;40.058;18.328;2023-01-30T07:50:05;8.83;;;3.90;;
52025;SDS011;38041;40.058;18.328;2023-01-30T07:52:33;5.73;;;3.70;;
52025;SDS011;38041;40.058;18.328;2023-01-30T07:55:01;10.37;;;5.37;;
52025;SDS011;38041;40.058;18.328;2023-01-30T07:57:28;10.33;;;4.43;;
52025;SDS011;38041;40.058;18.328;2023-01-30T07:59:56;8.40;;;3.43;;
52025;SDS011;38041;40.058;18.328;2023-01-30T08:02:24;8.47;;;2.97;;
52025;SDS011;38041;40.058;18.328;2023-01-30T08:04:51;7.87;;;3.73;;
52025;SDS011;38041;40.058;18.328;2023-01-30T08:07:19;9.43;;;4.73;;
52025;SDS011;38041;40.058;18.328;2023-01-30T08:09:47;9.47;;;3.93;;
52025;SDS011;38041;40.058;18.328;2023-01-30T08:12:14;9.10;;;3.87;;
52025;SDS011;38041;40.058;18.328;2023-01-30T08:14:42;9.93;;;4.87;;
52025;SDS011;38041;40.058;18.328;2023-01-30T08:17:10;13.53;;;5.37;;
52025;SDS011;38041;40.058;18.328;2023-01-30T08:19:38;8.97;;;4.07;;
52025;SDS011;38041;40.058;18.328;2023-01-30T08:22:05;9.17;;;4.60;;
52025;SDS011;38041;40.058;18.328;2023-01-30T08:24:33;11.87;;;4.60;;
52025;SDS011;38041;40.058;18.328;2023-01-30T08:27:01;5.93;;;3.23;;
52025;SDS011;38041;40.058;18.328;2023-01-30T08:29:29;5.97;;;3.50;;
52025;SDS011;38041;40.058;18.328;2023-01-30T08:31:57;8.00;;;2.80;;
52025;SDS011;38041;40.058;18.328;2023-01-30T08:34:25;6.70;;;2.20;;
52025;SDS011;38041;40.058;18.328;2023-01-30T08:36:53;10.90;;;3.20;;
52025;SDS011;38041;40.058;18.328;2023-01-30T08:39:21;4.10;;;2.47;;
52025;SDS011;38041;40.058;18.328;2023-01-30T08:41:48;6.17;;;3.50;;
52025;SDS011;38041;40.058;18.328;2023-01-30T08:44:16;9.77;;;3.50;;
52025;SDS011;38041;40.058;18.328;2023-01-30T08:46:44;6.17;;;2.93;;
52025;SDS011;38041;40.058;18.328;2023-01-30T08:49:11;11.27;;;2.83;;
52025;SDS011;38041;40.058;18.328;2023-01-30T08:51:39;5.60;;;2.93;;
52025;SDS011;38041;40.058;18.328;2023-01-30T08:54:07;24.10;;;13.13;;
52025;SDS011;38041;40.058;18.328;2023-01-30T08:56:34;10.07;;;6.27;;
52025;SDS011;38041;40.058;18.328;2023-01-30T08:59:02;15.87;;;7.30;;
52025;SDS011;38041;40.058;18.328;2023-01-30T09:01:30;12.07;;;7.17;;
52025;SDS011;38041;40.058;18.328;2023-01-30T09:03:58;19.57;;;10.97;;
52025;SDS011;38041;40.058;18.328;2023-01-30T09:06:25;14.37;;;7.33;;
52025;SDS011;38041;40.058;18.328;2023-01-30T09:08:53;13.20;;;7.67;;
52025;SDS011;38041;40.058;18.328;2023-01-30T09:11:21;19.33;;;10.83;;
52025;SDS011;38041;40.058;18.328;2023-01-30T09:13:48;10.50;;;5.07;;
52025;SDS011;38041;40.058;18.328;2023-01-30T09:16:16;12.03;;;7.73;;
52025;SDS011;38041;40.058;18.328;2023-01-30T09:18:44;10.00;;;6.03;;
52025;SDS011;38041;40.058;18.328;2023-01-30T09:21:12;9.90;;;5.30;;
52025;SDS011;38041;40.058;18.328;2023-01-30T09:23:40;8.47;;;5.57;;
52025;SDS011;38041;40.058;18.328;2023-01-30T09:26:08;13.83;;;6.23;;
52025;SDS011;38041;40.058;18.328;2023-01-30T09:28:35;6.90;;;4.50;;
52025;SDS011;38041;40.058;18.328;2023-01-30T09:31:03;10.27;;;5.37;;
52025;SDS011;38041;40.058;18.328;2023-01-30T09:33:31;14.67;;;6.00;;
52025;SDS011;38041;40.058;18.328;2023-01-30T09:35:59;13.17;;;7.27;;
52025;SDS011;38041;40.058;18.328;2023-01-30T09:38:26;17.40;;;9.77;;
52025;SDS011;38041;40.058;18.328;2023-01-30T09:43:34;47.00;;;24.33;;
52025;SDS011;38041;40.058;18.328;2023-01-30T09:46:27;35.30;;;19.60;;
52025;SDS011;38041;40.058;18.328;2023-01-30T09:56:43;50.07;;;32.20;;
52025;SDS011;38041;40.058;18.328;2023-01-30T09:59:18;23.70;;;14.77;;
52025;SDS011;38041;40.058;18.328;2023-01-30T10:01:59;16.70;;;8.27;;
52025;SDS011;38041;40.058;18.328;2023-01-30T10:09:36;21.30;;;12.13;;
52025;SDS011;38041;40.058;18.328;2023-01-30T10:17:52;29.63;;;18.63;;
52025;SDS011;38041;40.058;18.328;2023-01-30T10:26:00;31.27;;;18.93;;
52025;SDS011;38041;40.058;18.328;2023-01-30T10:28:53;19.97;;;10.87;;
52025;SDS011;38041;40.058;18.328;2023-01-30T10:31:33;18.60;;;11.67;;
52025;SDS011;38041;40.058;18.328;2023-01-30T10:34:05;19.10;;;9.57;;
52025;SDS011;38041;40.058;18.328;2023-01-30T10:41:53;13.33;;;9.80;;
52025;SDS011;38041;40.058;18.328;2023-01-30T10:44:21;13.30;;;8.33;;
52025;SDS011;38041;40.058;18.328;2023-01-30T10:47:13;11.97;;;6.87;;
52025;SDS011;38041;40.058;18.328;2023-01-30T10:49:43;16.67;;;8.97;;
52025;SDS011;38041;40.058;18.328;2023-01-30T11:00:23;15.87;;;9.97;;
52025;SDS011;38041;40.058;18.328;2023-01-30T11:03:12;13.33;;;7.43;;
52025;SDS011;38041;40.058;18.328;2023-01-30T11:05:49;14.30;;;8.70;;
52025;SDS011;38041;40.058;18.328;2023-01-30T11:08:22;13.77;;;6.53;;
52025;SDS011;38041;40.058;18.328;2023-01-30T11:10:50;6.17;;;3.77;;
52025;SDS011;38041;40.058;18.328;2023-01-30T11:13:19;9.70;;;6.10;;
52025;SDS011;38041;40.058;18.328;2023-01-30T11:15:48;15.07;;;8.27;;
52025;SDS011;38041;40.058;18.328;2023-01-30T11:18:17;12.37;;;5.23;;
52025;SDS011;38041;40.058;18.328;2023-01-30T11:21:10;7.77;;;4.57;;
52025;SDS011;38041;40.058;18.328;2023-01-30T11:23:41;9.90;;;5.80;;
52025;SDS011;38041;40.058;18.328;2023-01-30T11:29:29;14.47;;;6.80;;
52025;SDS011;38041;40.058;18.328;2023-01-30T11:32:01;16.33;;;7.17;;
52025;SDS011;38041;40.058;18.328;2023-01-30T11:34:30;7.90;;;4.57;;
52025;SDS011;38041;40.058;18.328;2023-01-30T11:39:49;12.20;;;7.10;;
52025;SDS011;38041;40.058;18.328;2023-01-30T11:42:18;15.67;;;9.77;;
52025;SDS011;38041;40.058;18.328;2023-01-30T11:44:46;13.03;;;7.93;;
52025;SDS011;38041;40.058;18.328;2023-01-30T11:47:21;15.73;;;7.30;;
52025;SDS011;38041;40.058;18.328;2023-01-30T11:49:51;13.83;;;7.00;;
52025;SDS011;38041;40.058;18.328;2023-01-30T11:52:28;14.27;;;8.80;;
52025;SDS011;38041;40.058;18.328;2023-01-30T11:54:57;13.57;;;7.60;;
52025;SDS011;38041;40.058;18.328;2023-01-30T11:57:47;14.67;;;8.73;;
52025;SDS011;38041;40.058;18.328;2023-01-30T12:00:17;12.93;;;8.07;;
52025;SDS011;38041;40.058;18.328;2023-01-30T12:02:46;12.00;;;7.30;;
52025;SDS011;38041;40.058;18.328;2023-01-30T12:05:27;24.97;;;12.47;;
52025;SDS011;38041;40.058;18.328;2023-01-30T12:08:10;21.70;;;13.57;;
52025;SDS011;38041;40.058;18.328;2023-01-30T12:10:41;20.03;;;10.30;;
52025;SDS011;38041;40.058;18.328;2023-01-30T12:13:15;22.00;;;12.63;;
52025;SDS011;38041;40.058;18.328;2023-01-30T12:15:45;18.07;;;11.13;;
52025;SDS011;38041;40.058;18.328;2023-01-30T12:18:28;18.87;;;11.83;;
52025;SDS011;38041;40.058;18.328;2023-01-30T12:20:59;14.33;;;8.57;;
52025;SDS011;38041;40.058;18.328;2023-01-30T12:26:28;17.10;;;12.50;;
52025;SDS011;38041;40.058;18.328;2023-01-30T12:31:47;14.87;;;9.13;;
52025;SDS011;38041;40.058;18.328;2023-01-30T12:34:23;18.30;;;10.17;;
52025;SDS011;38041;40.058;18.328;2023-01-30T12:42:43;24.17;;;12.10;;
52025;SDS011;38041;40.058;18.328;2023-01-30T12:58:05;15.90;;;9.50;;
52025;SDS011;38041;40.058;18.328;2023-01-30T13:11:28;17.10;;;10.23;;
52025;SDS011;38041;40.058;18.328;2023-01-30T13:16:43;19.37;;;12.97;;
52025;SDS011;38041;40.058;18.328;2023-01-30T13:19:14;11.00;;;6.55;;
52025;SDS011;38041;40.058;18.328;2023-01-30T13:21:46;9.83;;;6.07;;
52025;SDS011;38041;40.058;18.328;2023-01-30T13:29:36;12.63;;;7.47;;
52025;SDS011;38041;40.058;18.328;2023-01-30T13:32:06;7.37;;;5.40;;
52025;SDS011;38041;40.058;18.328;2023-01-30T13:34:39;7.10;;;3.97;;
52025;SDS011;38041;40.058;18.328;2023-01-30T13:37:10;7.70;;;4.43;;
52025;SDS011;38041;40.058;18.328;2023-01-30T13:39:39;11.20;;;4.93;;
52025;SDS011;38041;40.058;18.328;2023-01-30T13:42:24;8.37;;;5.10;;
52025;SDS011;38041;40.058;18.328;2023-01-30T13:44:53;10.87;;;5.90;;
52025;SDS011;38041;40.058;18.328;2023-01-30T13:50:00;10.83;;;7.20;;
52025;SDS011;38041;40.058;18.328;2023-01-30T13:52:33;19.53;;;10.17;;
52025;SDS011;38041;40.058;18.328;2023-01-30T14:06:21;22.73;;;11.97;;
52025;SDS011;38041;40.058;18.328;2023-01-30T14:10:59;30.63;;;18.00;;
52025;SDS011;38041;40.058;18.328;2023-01-30T14:13:26;24.70;;;15.80;;
52025;SDS011;38041;40.058;18.328;2023-01-30T14:15:57;26.43;;;17.27;;
52025;SDS011;38041;40.058;18.328;2023-01-30T14:18:26;41.80;;;25.13;;
52025;SDS011;38041;40.058;18.328;2023-01-30T14:23:39;20.67;;;12.00;;
52025;SDS011;38041;40.058;18.328;2023-01-30T14:26:08;16.93;;;9.67;;
52025;SDS011;38041;40.058;18.328;2023-01-30T14:31:03;17.07;;;10.37;;
52025;SDS011;38041;40.058;18.328;2023-01-30T14:33:32;21.97;;;14.33;;
52025;SDS011;38041;40.058;18.328;2023-01-30T14:38:31;19.97;;;12.50;;
52025;SDS011;38041;40.058;18.328;2023-01-30T14:43:34;37.47;;;21.20;;
52025;SDS011;38041;40.058;18.328;2023-01-30T14:48:37;19.00;;;11.43;;
52025;SDS011;38041;40.058;18.328;2023-01-30T14:53:45;36.07;;;21.43;;
52025;SDS011;38041;40.058;18.328;2023-01-30T14:56:14;29.83;;;17.67;;
52025;SDS011;38041;40.058;18.328;2023-01-30T14:58:56;45.80;;;27.80;;
52025;SDS011;38041;40.058;18.328;2023-01-30T15:01:25;31.63;;;20.93;;
52025;SDS011;38041;40.058;18.328;2023-01-30T15:03:53;48.73;;;31.83;;
52025;SDS011;38041;40.058;18.328;2023-01-30T15:06:21;41.13;;;24.10;;
52025;SDS011;38041;40.058;18.328;2023-01-30T15:08:51;20.30;;;13.43;;
52025;SDS011;38041;40.058;18.328;2023-01-30T15:11:23;34.47;;;22.60;;
52025;SDS011;38041;40.058;18.328;2023-01-30T15:13:56;15.17;;;11.33;;
52025;SDS011;38041;40.058;18.328;2023-01-30T15:22:07;15.70;;;8.83;;
52025;SDS011;38041;40.058;18.328;2023-01-30T15:32:18;16.90;;;9.27;;
52025;SDS011;38041;40.058;18.328;2023-01-30T15:34:56;18.77;;;9.27;;
52025;SDS011;38041;40.058;18.328;2023-01-30T15:37:32;17.90;;;9.80;;
52025;SDS011;38041;40.058;18.328;2023-01-30T15:42:28;28.87;;;15.07;;
52025;SDS011;38041;40.058;18.328;2023-01-30T15:44:57;35.57;;;21.00;;
52025;SDS011;38041;40.058;18.328;2023-01-30T15:47:40;26.40;;;17.17;;
52025;SDS011;38041;40.058;18.328;2023-01-30T15:50:11;39.13;;;23.40;;
52025;SDS011;38041;40.058;18.328;2023-01-30T15:52:46;36.90;;;22.40;;
52025;SDS011;38041;40.058;18.328;2023-01-30T15:57:44;46.47;;;25.80;;
52025;SDS011;38041;40.058;18.328;2023-01-30T16:00:18;34.33;;;21.03;;
52025;SDS011;38041;40.058;18.328;2023-01-30T16:02:48;39.22;;;24.45;;
52025;SDS011;38041;40.058;18.328;2023-01-30T16:05:17;36.50;;;21.30;;
52025;SDS011;38041;40.058;18.328;2023-01-30T16:07:46;34.47;;;19.90;;
52025;SDS011;38041;40.058;18.328;2023-01-30T16:10:15;33.17;;;22.10;;
52025;SDS011;38041;40.058;18.328;2023-01-30T16:12:43;35.73;;;23.67;;
52025;SDS011;38041;40.058;18.328;2023-01-30T16:15:12;34.27;;;21.10;;
52025;SDS011;38041;40.058;18.328;2023-01-30T16:17:47;38.17;;;23.37;;
52025;SDS011;38041;40.058;18.328;2023-01-30T16:20:16;38.27;;;24.23;;
52025;SDS011;38041;40.058;18.328;2023-01-30T16:22:43;37.63;;;23.43;;
52025;SDS011;38041;40.058;18.328;2023-01-30T16:25:15;40.43;;;23.33;;
52025;SDS011;38041;40.058;18.328;2023-01-30T16:27:44;39.60;;;24.60;;
52025;SDS011;38041;40.058;18.328;2023-01-30T16:30:18;49.30;;;28.87;;
52025;SDS011;38041;40.058;18.328;2023-01-30T16:32:46;39.93;;;25.97;;
52025;SDS011;38041;40.058;18.328;2023-01-30T16:37:52;39.33;;;28.23;;
52025;SDS011;38041;40.058;18.328;2023-01-30T16:40:21;53.10;;;27.80;;
52025;SDS011;38041;40.058;18.328;2023-01-30T16:42:56;43.60;;;27.67;;
52025;SDS011;38041;40.058;18.328;2023-01-30T16:50:45;34.70;;;22.23;;
52025;SDS011;38041;40.058;18.328;2023-01-30T16:53:13;43.17;;;27.77;;
52025;SDS011;38041;40.058;18.328;2023-01-30T16:58:20;64.27;;;39.63;;
52025;SDS011;38041;40.058;18.328;2023-01-30T17:00:49;55.27;;;32.83;;
52025;SDS011;38041;40.058;18.328;2023-01-30T17:03:23;53.87;;;32.70;;
52025;SDS011;38041;40.058;18.328;2023-01-30T17:05:54;42.97;;;30.83;;
52025;SDS011;38041;40.058;18.328;2023-01-30T17:11:27;48.33;;;32.07;;
52025;SDS011;38041;40.058;18.328;2023-01-30T17:16:37;44.90;;;27.07;;
52025;SDS011;38041;40.058;18.328;2023-01-30T17:19:06;36.50;;;24.80;;
52025;SDS011;38041;40.058;18.328;2023-01-30T17:21:36;42.00;;;24.87;;
52025;SDS011;38041;40.058;18.328;2023-01-30T17:24:09;63.60;;;37.25;;
52025;SDS011;38041;40.058;18.328;2023-01-30T17:26:39;38.60;;;23.37;;
52025;SDS011;38041;40.058;18.328;2023-01-30T17:29:11;30.50;;;17.83;;
52025;SDS011;38041;40.058;18.328;2023-01-30T17:31:47;40.08;;;23.73;;
52025;SDS011;38041;40.058;18.328;2023-01-30T17:34:15;36.20;;;21.10;;
52025;SDS011;38041;40.058;18.328;2023-01-30T17:36:44;27.93;;;18.60;;
52025;SDS011;38041;40.058;18.328;2023-01-30T17:39:13;23.40;;;14.93;;
52025;SDS011;38041;40.058;18.328;2023-01-30T17:41:43;34.93;;;20.00;;
52025;SDS011;38041;40.058;18.328;2023-01-30T17:44:11;35.83;;;21.20;;
52025;SDS011;38041;40.058;18.328;2023-01-30T17:49:14;34.80;;;16.97;;